createdAt,value
2023-04-22T00:00:22.125Z,11.90
2023-04-22T00:02:49.482Z,11.90
2023-04-22T00:05:20.575Z,11.90
2023-04-22T00:07:48.758Z,11.90
2023-04-22T00:10:16.325Z,11.80
2023-04-22T00:12:43.574Z,11.80
2023-04-22T00:15:11.508Z,11.80
2023-04-22T00:17:41.164Z,11.80
2023-04-22T00:20:11.230Z,11.70
2023-04-22T00:22:38.662Z,11.70
2023-04-22T00:25:06.907Z,11.70
2023-04-22T00:27:34.336Z,11.70
2023-04-22T00:30:01.490Z,11.70
2023-04-22T00:32:28.726Z,11.60
2023-04-22T00:34:57.451Z,11.60
2023-04-22T00:37:25.617Z,11.60
2023-04-22T00:39:52.844Z,11.60
2023-04-22T00:42:21.479Z,11.50
2023-04-22T00:44:49.672Z,11.50
2023-04-22T00:47:18.618Z,11.50
2023-04-22T00:49:46.996Z,11.50
2023-04-22T00:52:14.293Z,11.50
2023-04-22T00:54:41.779Z,11.50
2023-04-22T00:57:09.051Z,11.40
2023-04-22T00:59:36.744Z,11.40
2023-04-22T01:02:04.772Z,11.40
2023-04-22T01:04:32.166Z,11.30
2023-04-22T01:07:01.610Z,11.30
2023-04-22T01:09:29.436Z,11.30
2023-04-22T01:11:57.647Z,11.30
2023-04-22T01:14:25.606Z,11.30
2023-04-22T01:16:56.510Z,11.30
2023-04-22T01:19:24.264Z,11.30
2023-04-22T01:21:52.714Z,11.20
2023-04-22T01:24:20.537Z,11.20
2023-04-22T01:26:49.059Z,11.20
2023-04-22T01:29:16.908Z,11.10
2023-04-22T01:31:44.562Z,11.10
2023-04-22T01:34:12.143Z,11.10
2023-04-22T01:36:39.363Z,11.10
2023-04-22T01:39:07.446Z,11.00
2023-04-22T01:41:35.575Z,11.00
2023-04-22T01:44:04.849Z,11.00
2023-04-22T01:46:34.031Z,11.00
2023-04-22T01:49:01.411Z,11.00
2023-04-22T01:51:28.782Z,10.90
2023-04-22T01:53:56.421Z,10.90
2023-04-22T01:56:23.920Z,10.90
2023-04-22T01:58:51.181Z,10.90
2023-04-22T02:01:18.502Z,10.90
2023-04-22T02:03:45.802Z,10.80
2023-04-22T02:06:13.249Z,10.80
2023-04-22T02:08:40.750Z,10.80
2023-04-22T02:11:08.069Z,10.80
2023-04-22T02:13:41.623Z,10.80
2023-04-22T02:16:09.566Z,10.80
2023-04-22T02:18:36.958Z,10.90
2023-04-22T02:21:04.348Z,10.90
2023-04-22T02:23:31.808Z,11.00
2023-04-22T02:25:59.133Z,11.00
2023-04-22T02:28:26.919Z,11.00
2023-04-22T02:30:54.209Z,11.00
2023-04-22T02:33:21.496Z,10.90
2023-04-22T02:35:48.737Z,10.90
2023-04-22T02:38:15.988Z,10.90
2023-04-22T02:40:43.305Z,10.80
2023-04-22T02:43:10.488Z,10.80
2023-04-22T02:45:37.719Z,10.80
2023-04-22T02:48:05.238Z,10.70
2023-04-22T02:50:32.556Z,10.70
2023-04-22T02:52:59.827Z,10.70
2023-04-22T02:55:27.125Z,10.60
2023-04-22T02:57:54.401Z,10.60
2023-04-22T03:00:21.765Z,10.60
2023-04-22T03:02:49.136Z,10.60
2023-04-22T03:05:16.599Z,10.60
2023-04-22T03:07:44.692Z,10.50
2023-04-22T03:10:11.910Z,10.50
2023-04-22T03:12:39.427Z,10.50
2023-04-22T03:15:07.518Z,10.50
2023-04-22T03:17:34.826Z,10.40
2023-04-22T03:20:02.240Z,10.40
2023-04-22T03:22:29.476Z,10.40
2023-04-22T03:24:56.728Z,10.30
2023-04-22T03:27:23.967Z,10.30
2023-04-22T03:29:51.231Z,10.30
2023-04-22T03:32:18.572Z,10.30
2023-04-22T03:34:45.987Z,10.30
2023-04-22T03:37:13.272Z,10.30
2023-04-22T03:39:40.925Z,10.30
2023-04-22T03:42:10.720Z,10.20
2023-04-22T03:44:37.940Z,10.20
2023-04-22T03:47:05.486Z,10.20
2023-04-22T03:49:33.196Z,10.20
2023-04-22T03:52:01.467Z,10.20
2023-04-22T03:54:28.708Z,10.20
2023-04-22T03:56:55.922Z,10.20
2023-04-22T03:59:23.136Z,10.20
2023-04-22T04:01:53.129Z,10.20
2023-04-22T04:04:20.935Z,10.20
2023-04-22T04:06:48.432Z,10.20
2023-04-22T04:09:15.708Z,10.30
2023-04-22T04:11:42.995Z,10.30
2023-04-22T04:14:10.307Z,10.30
2023-04-22T04:16:37.559Z,10.40
2023-04-22T04:19:06.434Z,10.40
2023-04-22T04:21:33.600Z,10.50
2023-04-22T04:24:01.045Z,10.50
2023-04-22T04:26:28.426Z,10.60
2023-04-22T04:28:55.921Z,10.70
2023-04-22T04:31:24.796Z,10.80
2023-04-22T04:33:53.061Z,10.90
2023-04-22T04:36:20.283Z,11.00
2023-04-22T04:38:47.908Z,11.00
2023-04-22T04:41:15.645Z,11.10
2023-04-22T04:43:46.407Z,11.20
2023-04-22T04:46:14.868Z,11.30
2023-04-22T04:48:42.479Z,11.30
2023-04-22T04:51:10.203Z,11.40
2023-04-22T04:53:37.518Z,11.40
2023-04-22T04:56:05.143Z,11.50
2023-04-22T04:58:32.384Z,11.60
2023-04-22T05:00:59.622Z,11.60
2023-04-22T05:03:27.142Z,11.70
2023-04-22T05:05:54.515Z,11.80
2023-04-22T05:08:21.927Z,11.80
2023-04-22T05:10:49.158Z,11.90
2023-04-22T05:13:16.330Z,12.00
2023-04-22T05:15:43.650Z,12.10
2023-04-22T05:18:10.898Z,12.20
2023-04-22T05:20:38.413Z,12.20
2023-04-22T05:23:05.747Z,12.30
2023-04-22T05:25:33.263Z,12.40
2023-04-22T05:28:00.612Z,12.40
2023-04-22T05:30:27.900Z,12.50
2023-04-22T05:32:55.117Z,12.60
2023-04-22T05:35:22.345Z,12.70
2023-04-22T05:37:49.576Z,12.80
2023-04-22T05:40:16.864Z,12.80
2023-04-22T05:42:44.188Z,12.90
2023-04-22T05:45:11.922Z,13.00
2023-04-22T05:47:39.393Z,13.10
2023-04-22T05:50:07.800Z,13.20
2023-04-22T05:52:35.017Z,13.30
2023-04-22T05:55:02.261Z,13.30
2023-04-22T05:57:29.609Z,13.40
2023-04-22T05:59:56.899Z,13.50
2023-04-22T06:02:24.339Z,13.50
2023-04-22T06:04:52.021Z,13.60
2023-04-22T06:07:19.381Z,13.70
2023-04-22T06:09:46.652Z,13.70
2023-04-22T06:12:13.890Z,13.80
2023-04-22T06:14:41.185Z,13.90
2023-04-22T06:17:09.767Z,13.90
2023-04-22T06:19:37.589Z,14.00
2023-04-22T06:22:05.086Z,14.00
2023-04-22T06:24:32.297Z,14.20
2023-04-22T06:26:59.589Z,14.20
2023-04-22T06:29:26.832Z,14.30
2023-04-22T06:31:55.182Z,14.30
2023-04-22T06:34:22.724Z,14.40
2023-04-22T06:36:51.243Z,14.40
2023-04-22T06:39:18.429Z,14.50
2023-04-22T06:41:45.709Z,14.70
2023-04-22T06:44:12.942Z,14.80
2023-04-22T06:46:40.367Z,14.90
2023-04-22T06:49:07.635Z,15.00
2023-04-22T06:51:35.130Z,15.10
2023-04-22T06:54:02.684Z,15.10
2023-04-22T06:56:30.173Z,15.20
2023-04-22T06:58:57.808Z,15.20
2023-04-22T07:01:25.165Z,15.30
2023-04-22T07:03:52.503Z,15.40
2023-04-22T07:06:19.974Z,15.40
2023-04-22T07:08:47.339Z,15.50
2023-04-22T07:11:14.630Z,15.50
2023-04-22T07:13:45.295Z,15.50
2023-04-22T07:16:12.653Z,15.60
2023-04-22T07:18:40.039Z,15.70
2023-04-22T07:21:07.266Z,15.70
2023-04-22T07:23:34.540Z,15.80
2023-04-22T07:26:02.866Z,15.80
2023-04-22T07:28:30.364Z,15.90
2023-04-22T07:30:57.606Z,16.00
2023-04-22T07:33:24.872Z,16.10
2023-04-22T07:35:52.113Z,16.10
2023-04-22T07:38:19.389Z,16.10
2023-04-22T07:40:47.854Z,16.20
2023-04-22T07:43:14.946Z,16.20
2023-04-22T07:45:42.173Z,16.30
2023-04-22T07:48:09.639Z,16.40
2023-04-22T07:50:38.715Z,16.50
2023-04-22T07:53:06.294Z,16.60
2023-04-22T07:55:34.035Z,16.70
2023-04-22T07:58:03.814Z,16.80
2023-04-22T08:00:31.177Z,16.90
2023-04-22T08:02:58.676Z,17.10
2023-04-22T08:05:26.384Z,17.20
2023-04-22T08:07:53.702Z,17.20
2023-04-22T08:10:21.287Z,17.30
2023-04-22T08:12:48.548Z,17.40
2023-04-22T08:15:15.864Z,17.50
2023-04-22T08:17:43.408Z,17.60
2023-04-22T08:20:10.908Z,17.60
2023-04-22T08:22:38.900Z,17.70
2023-04-22T08:25:06.996Z,17.80
2023-04-22T08:27:34.209Z,17.80
2023-04-22T08:30:01.596Z,17.90
2023-04-22T08:32:28.847Z,17.90
2023-04-22T08:35:03.888Z,18.00
2023-04-22T08:37:31.797Z,18.10
2023-04-22T08:39:59.028Z,18.20
2023-04-22T08:42:27.940Z,18.20
2023-04-22T08:44:55.801Z,18.30
2023-04-22T08:47:25.227Z,18.30
2023-04-22T08:49:55.789Z,18.40
2023-04-22T08:52:23.104Z,18.40
2023-04-22T08:54:50.562Z,18.50
2023-04-22T08:57:19.141Z,18.50
2023-04-22T08:59:47.061Z,18.60
2023-04-22T09:02:21.342Z,18.70
2023-04-22T09:04:51.721Z,18.70
2023-04-22T09:07:25.374Z,18.80
2023-04-22T09:09:55.417Z,18.90
2023-04-22T09:12:23.846Z,18.90
2023-04-22T09:14:51.904Z,19.00
2023-04-22T09:17:35.087Z,19.10
2023-04-22T09:20:06.256Z,19.10
2023-04-22T09:22:43.864Z,19.20
2023-04-22T09:25:26.969Z,19.20
2023-04-22T09:27:57.420Z,19.30
2023-04-22T09:30:36.637Z,19.40
2023-04-22T09:33:07.509Z,19.40
2023-04-22T09:35:37.813Z,19.50
2023-04-22T09:38:11.126Z,19.50
2023-04-22T09:40:43.337Z,19.60
2023-04-22T09:43:11.719Z,19.50
2023-04-22T09:45:41.512Z,19.50
2023-04-22T09:48:12.551Z,19.60
2023-04-22T09:50:44.834Z,19.70
2023-04-22T09:53:17.102Z,19.70
2023-04-22T09:55:51.679Z,19.80
2023-04-22T09:58:23.646Z,19.80
2023-04-22T10:00:58.043Z,19.80
2023-04-22T10:03:25.366Z,19.90
2023-04-22T10:05:52.702Z,19.90
2023-04-22T10:08:19.902Z,20.00
2023-04-22T10:10:47.492Z,19.90
2023-04-22T10:13:16.128Z,20.00
2023-04-22T10:15:56.666Z,20.00
2023-04-22T10:18:27.228Z,20.10
2023-04-22T10:20:56.652Z,20.20
2023-04-22T10:23:25.216Z,20.30
2023-04-22T10:25:56.384Z,20.50
2023-04-22T10:28:28.727Z,20.50
2023-04-22T10:30:56.126Z,20.50
2023-04-22T10:33:31.480Z,20.50
2023-04-22T10:36:14.830Z,20.60
2023-04-22T10:39:01.877Z,20.60
2023-04-22T10:41:34.432Z,20.70
2023-04-22T10:44:10.818Z,20.70
2023-04-22T10:46:42.515Z,20.80
2023-04-22T10:49:11.389Z,20.80
2023-04-22T10:51:44.281Z,20.90
2023-04-22T10:54:31.892Z,21.00
2023-04-22T10:57:09.981Z,21.10
2023-04-22T10:59:47.941Z,21.10
2023-04-22T11:02:18.246Z,21.20
2023-04-22T11:04:46.238Z,21.20
2023-04-22T11:07:32.072Z,21.30
2023-04-22T11:10:08.038Z,21.30
2023-04-22T11:12:43.903Z,21.40
2023-04-22T11:15:22.390Z,21.40
2023-04-22T11:17:55.553Z,21.50
2023-04-22T11:20:23.605Z,21.50
2023-04-22T11:22:56.539Z,21.60
2023-04-22T11:25:26.975Z,21.90
2023-04-22T11:27:57.896Z,22.20
2023-04-22T11:30:29.010Z,22.40
2023-04-22T11:33:00.111Z,22.60
2023-04-22T11:35:34.121Z,22.80
2023-04-22T11:38:04.316Z,23.00
2023-04-22T11:40:39.524Z,23.20
2023-04-22T11:43:10.024Z,23.40
2023-04-22T11:45:39.956Z,23.40
2023-04-22T11:48:11.872Z,23.50
2023-04-22T11:50:42.473Z,23.50
2023-04-22T11:53:21.492Z,23.60
2023-04-22T11:55:51.985Z,23.70
2023-04-22T11:58:29.561Z,23.80
2023-04-22T12:00:59.600Z,23.80
2023-04-22T12:03:29.933Z,24.00
2023-04-22T12:06:04.547Z,24.10
2023-04-22T12:08:36.830Z,24.20
2023-04-22T12:11:08.162Z,24.20
2023-04-22T12:13:43.853Z,24.10
2023-04-22T12:16:18.673Z,24.00
2023-04-22T12:18:51.273Z,23.90
2023-04-22T12:21:24.831Z,23.90
2023-04-22T12:24:05.123Z,23.90
2023-04-22T12:26:32.580Z,24.00
2023-04-22T12:29:01.035Z,24.10
2023-04-22T12:31:28.512Z,24.10
2023-04-22T12:33:56.519Z,24.10
2023-04-22T12:36:25.171Z,24.10
2023-04-22T12:38:52.996Z,24.10
2023-04-22T12:41:20.258Z,24.10
2023-04-22T12:43:47.825Z,24.10
2023-04-22T12:46:15.166Z,24.10
2023-04-22T12:48:42.965Z,24.20
2023-04-22T12:51:11.349Z,24.30
2023-04-22T12:53:38.583Z,24.30
2023-04-22T12:56:06.014Z,24.40
2023-04-22T12:58:33.298Z,24.50
2023-04-22T13:01:00.541Z,24.50
2023-04-22T13:03:28.103Z,24.50
2023-04-22T13:05:55.620Z,24.30
2023-04-22T13:08:22.899Z,24.20
2023-04-22T13:10:50.112Z,24.20
2023-04-22T13:13:19.083Z,24.20
2023-04-22T13:15:53.610Z,24.20
2023-04-22T13:18:23.332Z,24.20
2023-04-22T13:20:51.364Z,24.10
2023-04-22T13:23:21.852Z,24.10
2023-04-22T13:25:54.406Z,24.20
2023-04-22T13:28:21.792Z,24.20
2023-04-22T13:30:49.015Z,24.30
2023-04-22T13:33:16.220Z,24.40
2023-04-22T13:35:43.614Z,24.50
2023-04-22T13:38:10.946Z,24.60
2023-04-22T13:40:38.291Z,24.70
2023-04-22T13:43:06.251Z,24.70
2023-04-22T13:45:33.522Z,24.70
2023-04-22T13:48:00.812Z,24.60
2023-04-22T13:50:28.271Z,24.50
2023-04-22T13:52:55.712Z,24.50
2023-04-22T13:55:23.049Z,24.40
2023-04-22T13:57:52.027Z,24.40
2023-04-22T14:00:20.713Z,24.40
2023-04-22T14:02:48.453Z,24.40
2023-04-22T14:05:16.046Z,24.30
2023-04-22T14:07:43.332Z,24.30
2023-04-22T14:10:12.261Z,24.20
2023-04-22T14:12:40.248Z,24.10
2023-04-22T14:15:11.150Z,24.00
2023-04-22T14:17:40.125Z,24.00
2023-04-22T14:20:11.163Z,23.90
2023-04-22T14:22:38.435Z,23.80
2023-04-22T14:25:07.239Z,23.80
2023-04-22T14:27:34.776Z,23.70
2023-04-22T14:30:04.417Z,23.70
2023-04-22T14:32:31.971Z,23.60
2023-04-22T14:34:59.251Z,23.60
2023-04-22T14:37:26.938Z,23.50
2023-04-22T14:39:54.187Z,23.50
2023-04-22T14:42:21.777Z,23.50
2023-04-22T14:44:49.260Z,23.50
2023-04-22T14:47:16.502Z,23.50
2023-04-22T14:49:43.766Z,23.50
2023-04-22T14:52:11.426Z,23.40
2023-04-22T14:54:38.740Z,23.40
2023-04-22T14:57:05.954Z,23.50
2023-04-22T14:59:33.159Z,23.60
2023-04-22T15:02:00.747Z,23.60
2023-04-22T15:04:28.147Z,23.70
2023-04-22T15:06:57.818Z,23.70
2023-04-22T15:09:25.437Z,23.70
2023-04-22T15:11:54.834Z,23.70
2023-04-22T15:14:22.075Z,23.70
2023-04-22T15:16:49.392Z,23.60
2023-04-22T15:19:16.670Z,23.50
2023-04-22T15:21:43.844Z,23.40
2023-04-22T15:24:11.170Z,23.30
2023-04-22T15:26:40.624Z,23.20
2023-04-22T15:29:08.005Z,23.10
2023-04-22T15:31:35.350Z,23.10
2023-04-22T15:34:02.632Z,23.10
2023-04-22T15:36:30.622Z,23.00
2023-04-22T15:38:57.921Z,23.10
2023-04-22T15:41:26.649Z,23.00
2023-04-22T15:43:53.988Z,23.00
2023-04-22T15:46:21.908Z,23.00
2023-04-22T15:48:49.582Z,23.00
2023-04-22T15:51:18.877Z,23.00
2023-04-22T15:53:46.225Z,23.00
2023-04-22T15:56:14.102Z,23.00
2023-04-22T15:58:41.620Z,23.10
2023-04-22T16:01:18.800Z,23.20
2023-04-22T16:03:50.402Z,23.40
2023-04-22T16:06:18.766Z,23.90
2023-04-22T16:08:46.526Z,24.80
2023-04-22T16:11:15.883Z,25.60
2023-04-22T16:13:43.451Z,26.20
2023-04-22T16:16:11.233Z,26.60
2023-04-22T16:18:39.023Z,27.00
2023-04-22T16:21:06.812Z,26.80
2023-04-22T16:23:34.784Z,26.10
2023-04-22T16:26:04.476Z,25.50
2023-04-22T16:28:32.537Z,24.90
2023-04-22T16:31:00.566Z,24.40
2023-04-22T16:33:28.696Z,24.00
2023-04-22T16:35:57.185Z,23.70
2023-04-22T16:38:24.474Z,23.40
2023-04-22T16:40:54.178Z,23.20
2023-04-22T16:43:22.084Z,23.00
2023-04-22T16:45:49.341Z,22.80
2023-04-22T16:48:16.559Z,22.70
2023-04-22T16:50:43.840Z,22.50
2023-04-22T16:53:11.972Z,22.20
2023-04-22T16:55:39.211Z,21.90
2023-04-22T16:58:06.521Z,21.70
2023-04-22T17:00:33.795Z,21.40
2023-04-22T17:03:01.289Z,21.20
2023-04-22T17:05:28.726Z,21.10
2023-04-22T17:07:55.966Z,20.90
2023-04-22T17:10:23.214Z,20.80
2023-04-22T17:12:50.408Z,20.60
2023-04-22T17:15:17.706Z,20.50
2023-04-22T17:17:45.008Z,20.40
2023-04-22T17:20:12.263Z,20.20
2023-04-22T17:22:39.544Z,20.10
2023-04-22T17:25:07.596Z,20.00
2023-04-22T17:27:34.821Z,19.90
2023-04-22T17:30:02.068Z,19.80
2023-04-22T17:32:29.484Z,19.70
2023-04-22T17:34:56.755Z,19.70
2023-04-22T17:37:24.097Z,19.60
2023-04-22T17:39:51.326Z,19.50
2023-04-22T17:42:18.992Z,19.40
2023-04-22T17:44:46.655Z,19.30
2023-04-22T17:47:14.026Z,19.20
2023-04-22T17:49:41.362Z,19.10
2023-04-22T17:52:09.010Z,19.10
2023-04-22T17:54:36.280Z,19.00
2023-04-22T17:57:03.930Z,18.90
2023-04-22T17:59:31.100Z,18.80
2023-04-22T18:01:59.666Z,18.60
2023-04-22T18:04:28.308Z,18.60
2023-04-22T18:06:55.687Z,18.50
2023-04-22T18:09:22.935Z,18.40
2023-04-22T18:11:50.495Z,18.30
2023-04-22T18:14:18.862Z,18.20
2023-04-22T18:16:46.155Z,18.20
2023-04-22T18:19:13.685Z,18.10
2023-04-22T18:21:49.582Z,18.00
2023-04-22T18:24:24.521Z,17.90
2023-04-22T18:26:52.766Z,17.80
2023-04-22T18:29:20.898Z,17.80
2023-04-22T18:31:48.241Z,17.70
2023-04-22T18:34:15.975Z,17.70
2023-04-22T18:36:43.201Z,17.60
2023-04-22T18:39:10.836Z,17.60
2023-04-22T18:41:39.568Z,17.50
2023-04-22T18:44:07.152Z,17.50
2023-04-22T18:46:34.410Z,17.40
2023-04-22T18:49:01.727Z,17.40
2023-04-22T18:51:29.851Z,17.40
2023-04-22T18:53:57.507Z,17.30
2023-04-22T18:56:24.862Z,17.30
2023-04-22T18:58:52.075Z,17.20
2023-04-22T19:01:19.388Z,17.20
2023-04-22T19:03:46.894Z,17.10
2023-04-22T19:06:14.331Z,17.10
2023-04-22T19:08:41.648Z,17.00
2023-04-22T19:11:09.058Z,17.00
2023-04-22T19:13:36.266Z,16.90
2023-04-22T19:16:03.563Z,16.90
2023-04-22T19:18:30.902Z,16.80
2023-04-22T19:20:58.152Z,16.70
2023-04-22T19:23:25.518Z,16.70
2023-04-22T19:25:53.201Z,16.60
2023-04-22T19:28:20.426Z,16.60
2023-04-22T19:30:48.114Z,16.60
2023-04-22T19:33:15.932Z,16.50
2023-04-22T19:35:43.293Z,16.50
2023-04-22T19:38:11.324Z,16.50
2023-04-22T19:40:38.581Z,16.40
2023-04-22T19:43:05.846Z,16.40
2023-04-22T19:45:33.084Z,16.40
2023-04-22T19:48:00.799Z,16.40
2023-04-22T19:50:28.411Z,16.40
2023-04-22T19:53:05.629Z,16.40
2023-04-22T19:55:36.146Z,16.40
2023-04-22T19:58:03.977Z,16.30
2023-04-22T20:00:35.363Z,16.30
2023-04-22T20:03:03.568Z,16.30
2023-04-22T20:05:31.467Z,16.30
2023-04-22T20:08:00.266Z,16.20
2023-04-22T20:10:29.151Z,16.20
2023-04-22T20:12:56.656Z,16.20
2023-04-22T20:15:24.462Z,16.10
2023-04-22T20:17:52.169Z,16.10
2023-04-22T20:20:19.578Z,16.00
2023-04-22T20:22:48.630Z,16.00
2023-04-22T20:25:19.971Z,16.00
2023-04-22T20:27:47.973Z,15.90
2023-04-22T20:30:15.657Z,15.90
2023-04-22T20:32:43.052Z,15.80
2023-04-22T20:35:14.870Z,15.80
2023-04-22T20:37:43.769Z,15.70
2023-04-22T20:40:14.870Z,15.70
2023-04-22T20:42:42.159Z,15.60
2023-04-22T20:45:15.068Z,15.60
2023-04-22T20:47:43.050Z,15.60
2023-04-22T20:50:11.030Z,15.50
2023-04-22T20:52:39.076Z,15.50
2023-04-22T20:55:07.083Z,15.50
2023-04-22T20:57:34.296Z,15.40
2023-04-22T21:00:01.609Z,15.40
2023-04-22T21:02:31.280Z,15.40
2023-04-22T21:05:00.565Z,15.40
2023-04-22T21:07:30.853Z,15.40
2023-04-22T21:09:58.671Z,15.30
2023-04-22T21:12:27.318Z,15.30
2023-04-22T21:14:54.924Z,15.30
2023-04-22T21:17:30.869Z,15.30
2023-04-22T21:19:59.357Z,15.20
2023-04-22T21:22:26.853Z,15.10
2023-04-22T21:24:54.203Z,15.10
2023-04-22T21:27:22.371Z,15.10
2023-04-22T21:29:50.354Z,15.10
2023-04-22T21:32:19.174Z,15.00
2023-04-22T21:34:46.653Z,15.00
2023-04-22T21:37:14.019Z,15.00
2023-04-22T21:39:41.189Z,15.00
2023-04-22T21:42:08.882Z,15.00
2023-04-22T21:44:37.344Z,15.00
2023-04-22T21:47:05.870Z,14.90
2023-04-22T21:49:33.071Z,14.90
2023-04-22T21:52:00.295Z,14.80
2023-04-22T21:54:27.407Z,14.80
2023-04-22T21:56:54.476Z,14.80
2023-04-22T21:59:21.691Z,14.70
2023-04-22T22:01:48.823Z,14.70
2023-04-22T22:07:17.485Z,14.60
2023-04-22T22:09:44.567Z,14.60
2023-04-22T22:12:12.191Z,14.60
2023-04-22T22:14:39.475Z,14.50
2023-04-22T22:17:08.461Z,14.50
2023-04-22T22:19:35.900Z,14.40
2023-04-22T22:22:03.025Z,14.40
2023-04-22T22:24:30.122Z,14.40
2023-04-22T22:26:58.005Z,14.30
2023-04-22T22:29:25.156Z,14.30
2023-04-22T22:31:52.338Z,14.30
2023-04-22T22:34:19.444Z,14.20
2023-04-22T22:36:46.577Z,14.20
2023-04-22T22:39:16.028Z,14.20
2023-04-22T22:41:44.210Z,14.20
2023-04-22T22:44:11.355Z,14.10
2023-04-22T22:46:40.339Z,14.10
2023-04-22T22:49:07.464Z,14.10
2023-04-22T22:51:34.568Z,14.10
2023-04-22T22:54:01.714Z,14.00
2023-04-22T22:56:28.863Z,14.00
2023-04-22T22:58:55.929Z,14.00
2023-04-22T23:01:23.262Z,14.00
2023-04-22T23:03:50.990Z,13.90
2023-04-22T23:06:18.181Z,13.90
2023-04-22T23:08:45.371Z,13.90
2023-04-22T23:11:12.665Z,13.90
2023-04-22T23:13:39.781Z,13.90
2023-04-22T23:16:06.903Z,13.90
2023-04-22T23:18:36.127Z,13.90
2023-04-22T23:21:04.697Z,13.90
2023-04-22T23:23:32.787Z,13.90
2023-04-22T23:26:03.176Z,13.90
2023-04-22T23:28:30.580Z,13.90
2023-04-22T23:30:57.997Z,13.90
2023-04-22T23:33:26.101Z,13.90
2023-04-22T23:35:53.633Z,13.90
2023-04-22T23:38:20.806Z,13.90
2023-04-22T23:40:48.066Z,13.80
2023-04-22T23:43:15.422Z,13.80
2023-04-22T23:45:43.123Z,13.80
2023-04-22T23:48:10.401Z,13.80
2023-04-22T23:50:37.565Z,13.80
2023-04-22T23:53:04.734Z,13.80
2023-04-22T23:55:32.229Z,13.70
2023-04-22T23:57:59.433Z,13.70
